Time;durP1;ratioP1;P1;durP2;ratioP2;P2;SDS_P1;SDS_P2;PMS_P1;PMS_P2;Temp;Humidity;BMP_temperature;BMP_pressure;BME280_temperature;BME280_humidity;BME280_pressure;Samples;Min_cycle;Max_cycle;Signal;HPM_P1;HPM_P2
2022/11/16 00:01:06;;;;;;;;;;;19.00;70.20;;;;;;4998698;28;1404;-69
2022/11/16 00:03:31;;;;;;;;;;;19.00;70.20;;;;;;5001887;28;935;-69
2022/11/16 00:06:01;;;;;;;;;;;19.00;70.20;;;;;;5013053;28;1895;-68
2022/11/16 00:08:27;;;;;;;;;;;19.00;70.20;;;;;;5007107;28;1498;-68
2022/11/16 00:10:53;;;;;;;;;;;19.00;70.30;;;;;;4997732;28;832;-69
2022/11/16 00:13:18;;;;;;;;;;;19.00;70.20;;;;;;4997441;28;833;-68
2022/11/16 00:15:52;;;;;;;;;;;19.00;70.50;;;;;;4999909;28;1221;-67
2022/11/16 00:18:18;;;;;;;;;;;19.10;70.30;;;;;;5008387;28;911;-67
2022/11/16 00:20:44;;;;;;;;;;;19.00;70.20;;;;;;4999264;28;1069;-68
2022/11/16 00:23:09;;;;;;;;;;;19.00;70.20;;;;;;4998570;28;865;-70
2022/11/16 00:25:35;;;;;;;;;;;19.00;70.30;;;;;;4999173;28;1973;-70
2022/11/16 00:28:00;;;;;;;;;;;19.00;70.30;;;;;;4997198;28;876;-70
2022/11/16 00:30:26;;;;;;;;;;;19.00;70.30;;;;;;4998828;28;865;-69
2022/11/16 00:32:51;;;;;;;;;;;19.00;70.30;;;;;;4997859;28;850;-69
2022/11/16 00:35:17;;;;;;;;;;;19.00;70.30;;;;;;4997609;28;906;-69
2022/11/16 00:37:42;;;;;;;;;;;19.00;70.30;;;;;;4996435;28;1214;-69
2022/11/16 00:40:08;;;;;;;;;;;19.00;70.30;;;;;;4998872;28;887;-67
2022/11/16 00:42:33;;;;;;;;;;;19.00;70.30;;;;;;5000325;28;1079;-67
2022/11/16 00:44:59;;;;;;;;;;;19.00;70.20;;;;;;5000205;28;1902;-68
2022/11/16 00:47:26;;;;;;;;;;;19.00;70.30;;;;;;4998129;28;1252;-69
2022/11/16 00:49:51;;;;;;;;;;;19.00;70.30;;;;;;4998623;28;1000;-69
2022/11/16 00:52:17;;;;;;;;;;;19.00;70.30;;;;;;4999750;28;922;-69
2022/11/16 00:54:42;;;;;;;;;;;19.00;70.30;;;;;;4996259;28;875;-68
2022/11/16 00:57:07;;;;;;;;;;;19.00;70.20;;;;;;4996120;28;1269;-68
2022/11/16 00:59:33;;;;;;;;;;;19.00;70.30;;;;;;4996159;28;847;-68
2022/11/16 01:01:58;;;;;;;;;;;19.00;70.30;;;;;;5000466;28;1113;-68
2022/11/16 01:04:24;;;;;;;;;;;19.00;70.30;;;;;;5000602;28;1907;-68
2022/11/16 01:06:49;;;;;;;;;;;19.00;70.30;;;;;;4994358;28;1253;-68
2022/11/16 01:09:15;;;;;;;;;;;19.00;71.00;;;;;;4999341;28;875;-68
2022/11/16 01:14:24;;;;;;;;;;;19.00;70.30;;;;;;5000554;28;1095;-69
2022/11/16 01:16:50;;;;;;;;;;;19.00;70.30;;;;;;4996930;28;1347;-68
2022/11/16 01:19:15;;;;;;;;;;;19.00;70.30;;;;;;4996268;28;868;-68
2022/11/16 01:21:41;;;;;;;;;;;19.00;70.30;;;;;;5002069;28;1201;-68
2022/11/16 01:24:09;;;;;;;;;;;19.00;70.30;;;;;;4999257;28;1984;-70
2022/11/16 01:26:35;;;;;;;;;;;19.00;70.30;;;;;;4996982;28;1375;-70
2022/11/16 01:29:00;;;;;;;;;;;19.00;70.30;;;;;;4996465;28;856;-70
2022/11/16 01:31:26;;;;;;;;;;;19.00;70.30;;;;;;4999726;28;856;-70
2022/11/16 01:33:51;;;;;;;;;;;19.00;70.30;;;;;;4999849;28;898;-69
2022/11/16 01:36:17;;;;;;;;;;;19.00;70.30;;;;;;4994591;28;1560;-69
2022/11/16 01:38:43;;;;;;;;;;;19.00;70.30;;;;;;4996880;28;970;-68
2022/11/16 01:41:10;;;;;;;;;;;19.00;70.30;;;;;;4997712;28;895;-68
2022/11/16 01:43:49;;;;;;;;;;;19.00;70.30;;;;;;5013002;28;826;-68
2022/11/16 01:46:15;;;;;;;;;;;19.00;70.30;;;;;;4997043;28;1368;-68
2022/11/16 01:48:40;;;;;;;;;;;19.00;70.30;;;;;;4997849;28;1321;-68
2022/11/16 01:51:06;;;;;;;;;;;19.00;70.30;;;;;;5006734;28;940;-68
2022/11/16 01:53:31;;;;;;;;;;;19.00;70.30;;;;;;4997801;28;789;-68
2022/11/16 01:55:57;;;;;;;;;;;19.00;70.30;;;;;;4994940;28;1280;-68
2022/11/16 01:58:22;;;;;;;;;;;19.00;70.30;;;;;;4995871;28;886;-68
2022/11/16 02:00:48;;;;;;;;;;;19.00;70.50;;;;;;4999131;28;888;-68
2022/11/16 02:03:16;;;;;;;;;;;19.00;70.30;;;;;;4997372;28;1002;-69
2022/11/16 02:05:49;;;;;;;;;;;19.00;70.30;;;;;;4997000;28;1967;-68
2022/11/16 02:11:13;;;;;;;;;;;19.00;70.40;;;;;;4997783;28;749;-68
2022/11/16 02:13:56;;;;;;;;;;;19.00;70.40;;;;;;5000468;28;1472;-68
2022/11/16 02:16:34;;;;;;;;;;;19.00;70.30;;;;;;5007200;28;1300;-68
2022/11/16 02:19:06;;;;;;;;;;;19.00;70.30;;;;;;5009045;28;994;-68
2022/11/16 02:21:50;;;;;;;;;;;19.00;70.30;;;;;;4999312;28;1018;-68
2022/11/16 02:24:24;;;;;;;;;;;19.00;70.30;;;;;;5001125;28;1918;-67
2022/11/16 02:27:08;;;;;;;;;;;19.00;70.30;;;;;;5001307;28;1319;-68
2022/11/16 02:29:38;;;;;;;;;;;19.00;70.40;;;;;;5000763;28;839;-69
2022/11/16 02:32:14;;;;;;;;;;;19.00;70.30;;;;;;5000384;28;863;-68
2022/11/16 02:34:56;;;;;;;;;;;19.00;70.40;;;;;;5000437;28;927;-68
2022/11/16 02:37:22;;;;;;;;;;;19.00;70.40;;;;;;5006161;28;1392;-68
2022/11/16 02:39:49;;;;;;;;;;;19.00;70.30;;;;;;5001399;28;1334;-66
2022/11/16 02:42:16;;;;;;;;;;;19.00;70.30;;;;;;5001238;28;1365;-67
2022/11/16 02:44:42;;;;;;;;;;;19.00;70.30;;;;;;5003673;28;1946;-68
2022/11/16 02:47:09;;;;;;;;;;;19.00;70.30;;;;;;4999870;28;1297;-67
2022/11/16 02:49:35;;;;;;;;;;;19.00;70.30;;;;;;5001359;28;1405;-67
2022/11/16 02:52:00;;;;;;;;;;;19.00;70.30;;;;;;5010138;28;1496;-68
2022/11/16 02:54:26;;;;;;;;;;;19.00;70.30;;;;;;5001036;28;1396;-67
2022/11/16 02:56:58;;;;;;;;;;;19.00;70.40;;;;;;5000616;28;1380;-68
2022/11/16 02:59:25;;;;;;;;;;;19.00;70.40;;;;;;5000473;28;1410;-68
2022/11/16 03:01:52;;;;;;;;;;;19.00;70.40;;;;;;5002230;28;1674;-68
2022/11/16 03:04:18;;;;;;;;;;;19.00;70.40;;;;;;5018243;28;1960;-68
2022/11/16 03:06:43;;;;;;;;;;;19.00;70.40;;;;;;4997969;28;1335;-68
2022/11/16 03:09:14;;;;;;;;;;;19.00;70.40;;;;;;5001180;28;1384;-68
2022/11/16 03:11:59;;;;;;;;;;;19.00;70.40;;;;;;4999994;28;1446;-69
2022/11/16 03:14:34;;;;;;;;;;;19.00;70.40;;;;;;5004906;28;1484;-69
2022/11/16 03:17:00;;;;;;;;;;;19.00;70.40;;;;;;4998832;28;1251;-68
2022/11/16 03:19:35;;;;;;;;;;;19.00;70.40;;;;;;5000624;28;1300;-69
2022/11/16 03:22:04;;;;;;;;;;;19.00;70.40;;;;;;4994996;28;1577;-68
2022/11/16 03:24:30;;;;;;;;;;;19.00;70.40;;;;;;5001612;28;1956;-68
2022/11/16 03:27:00;;;;;;;;;;;19.00;70.40;;;;;;4997431;28;1367;-69
2022/11/16 03:29:29;;;;;;;;;;;19.00;70.40;;;;;;5017607;28;2159;-69
2022/11/16 03:31:56;;;;;;;;;;;19.00;70.40;;;;;;5014884;28;832;-68
2022/11/16 03:34:22;;;;;;;;;;;19.00;70.40;;;;;;5002092;28;1324;-68
2022/11/16 03:36:47;;;;;;;;;;;19.00;70.40;;;;;;5000409;28;1233;-68
2022/11/16 03:39:23;;;;;;;;;;;19.00;70.40;;;;;;5006966;28;879;-68
2022/11/16 03:41:49;;;;;;;;;;;19.00;70.40;;;;;;4998812;28;931;-69
2022/11/16 03:44:14;;;;;;;;;;;19.00;70.40;;;;;;4994140;28;1894;-69
2022/11/16 03:46:43;;;;;;;;;;;19.00;70.40;;;;;;4998247;28;1323;-68
2022/11/16 03:49:08;;;;;;;;;;;18.90;70.40;;;;;;4997720;28;797;-68
2022/11/16 03:51:34;;;;;;;;;;;19.00;70.40;;;;;;4999026;28;906;-68
2022/11/16 03:53:59;;;;;;;;;;;19.00;70.40;;;;;;4996826;28;845;-68
2022/11/16 03:56:25;;;;;;;;;;;19.00;70.40;;;;;;5001328;28;1269;-68
2022/11/16 03:58:50;;;;;;;;;;;19.00;70.50;;;;;;5001012;28;911;-69
2022/11/16 04:01:16;;;;;;;;;;;19.00;70.40;;;;;;4997227;28;1041;-69
2022/11/16 04:03:41;;;;;;;;;;;18.90;70.40;;;;;;4998934;28;806;-69
2022/11/16 04:25:43;;;;;;;;;;;19.00;70.50;;;;;;5003761;28;1973;-69
2022/11/16 04:28:15;;;;;;;;;;;18.90;70.40;;;;;;5006537;28;956;-69
2022/11/16 04:38:54;;;;;;;;;;;19.00;70.50;;;;;;4998419;28;789;-70
2022/11/16 04:44:03;;;;;;;;;;;18.90;70.40;;;;;;4997377;28;1907;-69
2022/11/16 04:49:13;;;;;;;;;;;18.90;70.50;;;;;;5000295;28;1122;-68
2022/11/16 04:51:38;;;;;;;;;;;19.00;70.50;;;;;;5000143;28;1247;-69
2022/11/16 04:54:04;;;;;;;;;;;18.90;70.40;;;;;;4997116;28;900;-68
2022/11/16 04:56:29;;;;;;;;;;;19.00;70.50;;;;;;4999931;28;1327;-69
2022/11/16 04:58:55;;;;;;;;;;;19.00;70.50;;;;;;4997274;28;1299;-69
2022/11/16 05:02:06;;;;;;;;;;;18.90;70.40;;;;;;4998550;28;773;-70
2022/11/16 05:04:08;;;;;;;;;;;18.90;70.40;;;;;;4999825;28;1906;-70
2022/11/16 05:06:34;;;;;;;;;;;18.90;70.40;;;;;;4998077;28;1230;-69
2022/11/16 05:08:59;;;;;;;;;;;18.90;70.40;;;;;;4998051;28;930;-69
2022/11/16 05:11:24;;;;;;;;;;;19.00;70.50;;;;;;4997749;28;904;-70
2022/11/16 05:13:50;;;;;;;;;;;19.00;70.50;;;;;;4998739;28;1236;-69
2022/11/16 05:16:15;;;;;;;;;;;19.00;70.40;;;;;;4995994;28;1249;-68
2022/11/16 05:18:41;;;;;;;;;;;19.00;70.30;;;;;;4997689;28;1688;-68
2022/11/16 05:21:06;;;;;;;;;;;19.00;70.30;;;;;;4997026;28;923;-68
2022/11/16 05:26:16;;;;;;;;;;;19.10;70.10;;;;;;4996122;28;1343;-68
2022/11/16 05:28:41;;;;;;;;;;;19.10;69.90;;;;;;4998455;28;839;-68
2022/11/16 05:31:07;;;;;;;;;;;19.20;69.80;;;;;;4999447;28;916;-69
2022/11/16 05:33:32;;;;;;;;;;;19.20;69.70;;;;;;4999149;28;887;-68
2022/11/16 05:35:58;;;;;;;;;;;19.20;69.60;;;;;;5008933;28;4607;-68
2022/11/16 05:38:23;;;;;;;;;;;19.20;69.40;;;;;;5031219;28;4724;-71
2022/11/16 05:40:48;;;;;;;;;;;19.30;69.40;;;;;;5038721;28;875;-69
2022/11/16 05:43:14;;;;;;;;;;;19.30;69.30;;;;;;5034428;28;1060;-70
2022/11/16 05:45:39;;;;;;;;;;;19.30;69.20;;;;;;5035525;28;1906;-71
2022/11/16 05:48:05;;;;;;;;;;;19.30;69.10;;;;;;5040246;28;1029;-68
2022/11/16 05:50:30;;;;;;;;;;;19.40;69.10;;;;;;5038456;28;755;-68
2022/11/16 05:52:56;;;;;;;;;;;19.40;69.00;;;;;;5041921;28;896;-68
2022/11/16 05:55:21;;;;;;;;;;;19.40;68.90;;;;;;5039160;28;853;-70
2022/11/16 05:57:47;;;;;;;;;;;19.40;68.90;;;;;;5040906;28;1237;-69
2022/11/16 06:00:13;;;;;;;;;;;19.40;68.80;;;;;;5042001;28;894;-69
2022/11/16 06:02:38;;;;;;;;;;;19.40;68.70;;;;;;5041196;28;915;-69
2022/11/16 06:05:04;;;;;;;;;;;19.40;68.70;;;;;;5040573;28;1969;-69
2022/11/16 06:07:29;;;;;;;;;;;19.40;68.70;;;;;;5039321;28;1304;-70
2022/11/16 06:09:54;;;;;;;;;;;19.50;68.70;;;;;;5018910;28;4099;-68
2022/11/16 06:12:20;;;;;;;;;;;19.50;68.60;;;;;;5045353;28;1457;-70
2022/11/16 06:14:45;;;;;;;;;;;19.50;68.60;;;;;;5040743;28;1441;-70
2022/11/16 06:17:13;;;;;;;;;;;19.50;68.50;;;;;;5039245;28;1331;-70
2022/11/16 06:19:39;;;;;;;;;;;19.50;68.50;;;;;;5040196;28;927;-71
2022/11/16 06:22:04;;;;;;;;;;;19.50;68.40;;;;;;5022818;28;959;-70
2022/11/16 06:24:29;;;;;;;;;;;19.50;68.40;;;;;;5039962;28;1956;-69
2022/11/16 06:26:55;;;;;;;;;;;19.50;68.30;;;;;;5040958;28;1237;-70
2022/11/16 06:29:21;;;;;;;;;;;19.50;68.30;;;;;;5041041;28;1289;-68
2022/11/16 06:31:46;;;;;;;;;;;19.60;68.40;;;;;;5039370;28;918;-70
2022/11/16 06:34:11;;;;;;;;;;;19.50;68.30;;;;;;5038106;28;855;-70
2022/11/16 06:36:37;;;;;;;;;;;19.60;69.70;;;;;;5038586;28;1354;-70
2022/11/16 06:39:02;;;;;;;;;;;19.60;70.90;;;;;;5043825;28;792;-69
2022/11/16 06:41:28;;;;;;;;;;;19.60;71.20;;;;;;5041013;28;872;-70
2022/11/16 06:43:53;;;;;;;;;;;19.70;70.90;;;;;;5040701;28;1951;-70
2022/11/16 06:46:19;;;;;;;;;;;19.70;71.00;;;;;;5040313;28;1594;-70
2022/11/16 06:48:44;;;;;;;;;;;19.80;71.20;;;;;;5041035;28;810;-70
2022/11/16 06:51:10;;;;;;;;;;;19.80;71.20;;;;;;5041783;28;895;-70
2022/11/16 06:53:35;;;;;;;;;;;19.80;70.30;;;;;;5041432;28;828;-68
2022/11/16 06:56:04;;;;;;;;;;;19.80;69.60;;;;;;5022800;28;1228;-70
2022/11/16 06:58:30;;;;;;;;;;;19.80;69.20;;;;;;5030854;28;1412;-70
2022/11/16 07:00:56;;;;;;;;;;;19.80;68.80;;;;;;5039164;28;823;-71
2022/11/16 07:03:21;;;;;;;;;;;19.80;68.70;;;;;;5039724;28;895;-71
2022/11/16 07:05:46;;;;;;;;;;;19.80;68.70;;;;;;5039944;28;1902;-69
2022/11/16 07:08:12;;;;;;;;;;;19.80;68.70;;;;;;5041845;28;1347;-69
2022/11/16 07:10:37;;;;;;;;;;;19.80;68.70;;;;;;5038671;28;1732;-74
2022/11/16 07:13:03;;;;;;;;;;;19.80;68.70;;;;;;5034121;28;1520;-72
2022/11/16 07:15:29;;;;;;;;;;;19.80;68.70;;;;;;5036700;28;1672;-71
2022/11/16 07:17:54;;;;;;;;;;;19.80;68.70;;;;;;5037207;28;1350;-72
2022/11/16 07:20:20;;;;;;;;;;;19.80;68.70;;;;;;5046293;28;1273;-72
2022/11/16 07:22:45;;;;;;;;;;;19.80;68.60;;;;;;5030871;28;1370;-68
2022/11/16 07:25:11;;;;;;;;;;;19.80;68.60;;;;;;5040658;28;1914;-71
2022/11/16 07:27:36;;;;;;;;;;;19.80;68.50;;;;;;5028376;28;1347;-71
2022/11/16 07:30:02;;;;;;;;;;;19.80;68.50;;;;;;5037714;28;4697;-68
2022/11/16 07:32:30;;;;;;;;;;;19.80;68.50;;;;;;5042324;28;1415;-69
2022/11/16 07:34:55;;;;;;;;;;;19.80;68.50;;;;;;5041222;28;1577;-70
2022/11/16 07:37:21;;;;;;;;;;;19.80;69.30;;;;;;5040494;28;1360;-69
2022/11/16 07:39:46;;;;;;;;;;;19.80;68.50;;;;;;5038354;28;1446;-70
2022/11/16 07:42:12;;;;;;;;;;;19.80;68.50;;;;;;5039588;28;1402;-70
2022/11/16 07:44:37;;;;;;;;;;;19.80;68.50;;;;;;5041730;28;1914;-70
2022/11/16 07:47:03;;;;;;;;;;;19.80;68.50;;;;;;5037467;28;1337;-70
2022/11/16 07:49:29;;;;;;;;;;;19.80;68.50;;;;;;5038586;28;1345;-71
2022/11/16 07:51:54;;;;;;;;;;;19.80;68.50;;;;;;5040901;28;1465;-70
2022/11/16 07:54:20;;;;;;;;;;;19.80;68.50;;;;;;5041187;28;1303;-70
2022/11/16 07:56:45;;;;;;;;;;;19.80;68.50;;;;;;5038566;28;1394;-70
2022/11/16 07:59:11;;;;;;;;;;;19.70;68.40;;;;;;5042668;28;1383;-69
2022/11/16 08:01:36;;;;;;;;;;;19.70;68.40;;;;;;5039958;28;740;-70
2022/11/16 08:04:02;;;;;;;;;;;19.80;68.40;;;;;;5037475;28;1968;-69
2022/11/16 08:06:28;;;;;;;;;;;19.80;68.40;;;;;;5041719;28;1221;-70
2022/11/16 08:08:53;;;;;;;;;;;19.80;68.40;;;;;;5039820;28;821;-70
2022/11/16 08:11:19;;;;;;;;;;;19.80;68.40;;;;;;5042764;28;856;-70
2022/11/16 08:13:44;;;;;;;;;;;19.70;68.30;;;;;;5038550;28;1135;-71
2022/11/16 08:16:13;;;;;;;;;;;19.80;68.40;;;;;;5023294;28;1347;-71
2022/11/16 08:18:39;;;;;;;;;;;19.70;68.30;;;;;;5038939;28;970;-71
2022/11/16 08:21:05;;;;;;;;;;;19.70;68.30;;;;;;5040148;28;876;-71
2022/11/16 08:23:30;;;;;;;;;;;19.80;68.40;;;;;;5033420;28;911;-71
2022/11/16 08:25:57;;;;;;;;;;;19.70;68.30;;;;;;5035812;28;1910;-71
2022/11/16 08:28:22;;;;;;;;;;;19.70;68.30;;;;;;5038223;28;771;-71
2022/11/16 08:30:50;;;;;;;;;;;19.70;68.40;;;;;;5041440;28;900;-70
2022/11/16 08:33:16;;;;;;;;;;;19.70;68.40;;;;;;5036653;28;843;-71
2022/11/16 08:35:42;;;;;;;;;;;19.70;68.40;;;;;;5038414;28;1327;-70
2022/11/16 08:38:07;;;;;;;;;;;19.70;68.40;;;;;;5040411;28;1255;-71
2022/11/16 08:40:34;;;;;;;;;;;19.70;68.50;;;;;;5044009;28;897;-70
2022/11/16 08:42:59;;;;;;;;;;;19.70;68.40;;;;;;5038055;28;913;-71
2022/11/16 08:45:26;;;;;;;;;;;19.70;68.40;;;;;;5019222;28;1886;-71
2022/11/16 08:47:51;;;;;;;;;;;19.70;68.40;;;;;;5036392;28;1153;-73
2022/11/16 08:50:17;;;;;;;;;;;19.70;68.40;;;;;;5039999;28;1308;-69
2022/11/16 08:52:42;;;;;;;;;;;19.70;68.40;;;;;;5035427;28;866;-71
2022/11/16 08:55:09;;;;;;;;;;;19.70;68.40;;;;;;5038422;28;1022;-71
2022/11/16 08:57:34;;;;;;;;;;;19.70;68.40;;;;;;5034066;28;1268;-71
2022/11/16 09:00:00;;;;;;;;;;;19.60;68.40;;;;;;5042402;28;784;-72
2022/11/16 09:02:25;;;;;;;;;;;19.60;68.40;;;;;;5037650;28;1022;-70
2022/11/16 09:04:51;;;;;;;;;;;19.70;68.40;;;;;;5038274;28;1898;-71
2022/11/16 09:07:17;;;;;;;;;;;19.60;68.40;;;;;;5039896;28;1256;-71
2022/11/16 09:09:43;;;;;;;;;;;19.70;68.50;;;;;;5039173;28;863;-70
2022/11/16 09:12:08;;;;;;;;;;;19.60;68.40;;;;;;5037312;28;953;-70
2022/11/16 09:14:33;;;;;;;;;;;19.60;68.40;;;;;;5036585;28;1102;-70
2022/11/16 09:16:59;;;;;;;;;;;19.60;68.40;;;;;;5033785;28;1264;-71
2022/11/16 09:19:24;;;;;;;;;;;19.60;68.40;;;;;;5037919;28;1018;-70
2022/11/16 09:21:50;;;;;;;;;;;19.60;68.40;;;;;;5040040;28;831;-70
2022/11/16 09:24:15;;;;;;;;;;;19.70;68.40;;;;;;5040240;28;1902;-72
2022/11/16 09:26:41;;;;;;;;;;;19.60;68.40;;;;;;5039706;28;1344;-71
2022/11/16 09:29:10;;;;;;;;;;;19.60;68.40;;;;;;5038344;28;1423;-71
2022/11/16 09:31:37;;;;;;;;;;;19.60;68.40;;;;;;5042852;28;1319;-71
2022/11/16 09:34:03;;;;;;;;;;;19.60;68.40;;;;;;5044927;28;1379;-70
2022/11/16 09:36:28;;;;;;;;;;;19.60;68.40;;;;;;5024201;28;1484;-71
2022/11/16 09:38:54;;;;;;;;;;;19.70;68.40;;;;;;5044590;28;1226;-71
2022/11/16 09:41:31;;;;;;;;;;;19.60;68.40;;;;;;5043382;28;1265;-70
2022/11/16 09:44:00;;;;;;;;;;;19.60;68.40;;;;;;5041236;28;1957;-71
2022/11/16 09:46:26;;;;;;;;;;;19.60;68.40;;;;;;5040549;28;1419;-71
2022/11/16 09:48:53;;;;;;;;;;;19.70;68.40;;;;;;5026737;28;1302;-71
2022/11/16 09:51:19;;;;;;;;;;;19.70;68.40;;;;;;5041445;28;1444;-71
2022/11/16 09:53:46;;;;;;;;;;;19.60;68.40;;;;;;5041042;28;1320;-71
2022/11/16 09:56:14;;;;;;;;;;;19.70;68.40;;;;;;5041359;28;1260;-71
2022/11/16 09:58:39;;;;;;;;;;;19.60;68.30;;;;;;5032966;28;867;-71
2022/11/16 10:01:06;;;;;;;;;;;19.70;68.40;;;;;;5045325;28;939;-71
2022/11/16 10:03:34;;;;;;;;;;;19.70;68.40;;;;;;5025796;28;839;-71
2022/11/16 10:06:04;;;;;;;;;;;19.70;68.40;;;;;;5039056;28;1898;-71
2022/11/16 10:08:29;;;;;;;;;;;19.60;68.30;;;;;;5040753;28;4740;-71
2022/11/16 10:10:57;;;;;;;;;;;19.70;68.30;;;;;;5043108;28;1289;-71
2022/11/16 10:13:38;;;;;;;;;;;19.70;68.30;;;;;;5040999;28;1110;-71
2022/11/16 10:16:06;;;;;;;;;;;19.70;68.30;;;;;;5040689;28;1458;-70
2022/11/16 10:18:32;;;;;;;;;;;19.70;68.30;;;;;;5037795;28;1574;-71
2022/11/16 10:20:57;;;;;;;;;;;19.70;68.30;;;;;;5036969;28;963;-70
2022/11/16 10:23:41;;;;;;;;;;;19.70;68.30;;;;;;5041062;28;857;-71
2022/11/16 10:26:13;;;;;;;;;;;19.60;68.30;;;;;;5039907;28;1976;-71
2022/11/16 10:28:38;;;;;;;;;;;19.60;68.30;;;;;;5037174;28;1305;-71
2022/11/16 10:31:04;;;;;;;;;;;19.60;68.30;;;;;;5021665;28;1474;-71
2022/11/16 10:33:34;;;;;;;;;;;19.60;68.40;;;;;;5040460;28;805;-70
2022/11/16 10:35:59;;;;;;;;;;;19.60;68.40;;;;;;5038769;28;1268;-71
2022/11/16 10:38:29;;;;;;;;;;;19.60;68.40;;;;;;5022900;28;947;-71
2022/11/16 10:40:55;;;;;;;;;;;19.60;68.40;;;;;;5038944;28;936;-71
2022/11/16 10:43:24;;;;;;;;;;;19.60;68.40;;;;;;5021234;28;904;-71
2022/11/16 10:46:02;;;;;;;;;;;19.60;68.40;;;;;;5030253;28;1922;-71
2022/11/16 10:48:36;;;;;;;;;;;19.60;68.50;;;;;;5022337;28;1580;-71
2022/11/16 10:51:02;;;;;;;;;;;19.60;68.50;;;;;;5038456;28;819;-71
2022/11/16 10:53:34;;;;;;;;;;;19.60;68.50;;;;;;5038678;28;919;-71
2022/11/16 10:56:11;;;;;;;;;;;19.60;68.60;;;;;;5040964;28;1220;-71
2022/11/16 10:58:51;;;;;;;;;;;19.60;68.70;;;;;;5041593;28;971;-71
2022/11/16 11:01:35;;;;;;;;;;;19.60;68.80;;;;;;5035788;28;1174;-71
2022/11/16 11:04:20;;;;;;;;;;;19.60;68.70;;;;;;5043331;28;1894;-71
2022/11/16 11:06:46;;;;;;;;;;;19.50;68.70;;;;;;5038575;28;1228;-71
2022/11/16 11:09:22;;;;;;;;;;;19.60;68.90;;;;;;5020872;28;964;-71
2022/11/16 11:14:41;;;;;;;;;;;19.50;68.80;;;;;;5038963;28;957;-71
2022/11/16 11:17:10;;;;;;;;;;;19.50;69.00;;;;;;5030451;28;1284;-71
2022/11/16 11:19:36;;;;;;;;;;;19.50;69.00;;;;;;5031011;28;871;-71
2022/11/16 11:22:01;;;;;;;;;;;19.50;68.90;;;;;;5042253;28;1022;-71
2022/11/16 11:24:27;;;;;;;;;;;19.50;68.90;;;;;;5030520;28;1971;-71
2022/11/16 11:26:53;;;;;;;;;;;19.50;69.00;;;;;;5037037;28;1280;-71
2022/11/16 11:29:18;;;;;;;;;;;19.50;69.00;;;;;;5038985;28;867;-71
2022/11/16 11:31:53;;;;;;;;;;;19.40;69.00;;;;;;5039909;28;848;-71
2022/11/16 11:34:20;;;;;;;;;;;19.50;69.00;;;;;;5039680;28;800;-71
2022/11/16 11:36:49;;;;;;;;;;;19.50;69.10;;;;;;5036412;28;1237;-71
2022/11/16 11:39:15;;;;;;;;;;;19.40;69.10;;;;;;5030446;28;962;-71
2022/11/16 11:41:44;;;;;;;;;;;19.40;69.10;;;;;;5025794;28;1294;-71
2022/11/16 11:44:12;;;;;;;;;;;19.40;69.10;;;;;;5018221;28;1952;-71
2022/11/16 11:46:39;;;;;;;;;;;19.40;69.20;;;;;;5039668;28;1288;-71
2022/11/16 11:49:12;;;;;;;;;;;19.40;69.20;;;;;;5044329;28;815;-71
2022/11/16 11:51:39;;;;;;;;;;;19.40;69.20;;;;;;5022149;28;808;-71
2022/11/16 11:54:04;;;;;;;;;;;19.40;69.20;;;;;;5038879;28;807;-71
2022/11/16 11:56:30;;;;;;;;;;;19.40;69.20;;;;;;5044200;28;1347;-71
2022/11/16 11:58:56;;;;;;;;;;;19.40;69.20;;;;;;5038264;28;927;-71
2022/11/16 12:01:27;;;;;;;;;;;19.40;69.30;;;;;;5040335;28;784;-71
2022/11/16 12:04:11;;;;;;;;;;;19.40;69.40;;;;;;5043194;28;947;-71
2022/11/16 12:06:38;;;;;;;;;;;19.40;69.50;;;;;;5040548;28;1217;-71
2022/11/16 12:09:10;;;;;;;;;;;19.40;69.40;;;;;;5031051;28;933;-71
2022/11/16 12:11:47;;;;;;;;;;;19.30;69.30;;;;;;5028493;28;1393;-71
2022/11/16 12:14:16;;;;;;;;;;;19.40;69.40;;;;;;5036373;28;1440;-71
2022/11/16 12:16:42;;;;;;;;;;;19.40;69.40;;;;;;5036361;28;1296;-71
2022/11/16 12:19:07;;;;;;;;;;;19.40;69.40;;;;;;5039183;28;1102;-71
2022/11/16 12:21:50;;;;;;;;;;;19.30;69.30;;;;;;5041014;28;905;-71
2022/11/16 12:24:16;;;;;;;;;;;19.30;69.40;;;;;;5040703;28;1958;-71
2022/11/16 12:26:44;;;;;;;;;;;19.40;69.40;;;;;;5039989;28;1277;-71
2022/11/16 12:29:24;;;;;;;;;;;19.30;69.30;;;;;;5038998;28;863;-71
2022/11/16 12:32:09;;;;;;;;;;;19.40;69.40;;;;;;5037008;28;918;-71
2022/11/16 12:34:34;;;;;;;;;;;19.40;69.40;;;;;;5039789;28;799;-71
2022/11/16 12:37:00;;;;;;;;;;;19.40;69.30;;;;;;5036567;28;1327;-71
2022/11/16 12:39:45;;;;;;;;;;;19.40;69.30;;;;;;5036497;28;1370;-70
2022/11/16 12:42:14;;;;;;;;;;;19.30;69.30;;;;;;5020750;28;1306;-70
2022/11/16 12:44:48;;;;;;;;;;;19.30;69.30;;;;;;5023986;28;1952;-71
2022/11/16 12:47:18;;;;;;;;;;;19.30;69.20;;;;;;5025003;28;1300;-71
2022/11/16 12:50:05;;;;;;;;;;;19.30;69.30;;;;;;5041337;28;879;-70
2022/11/16 12:52:53;;;;;;;;;;;19.30;69.30;;;;;;5037852;28;819;-70
2022/11/16 12:55:31;;;;;;;;;;;19.30;69.40;;;;;;5029352;28;912;-70
2022/11/16 12:58:06;;;;;;;;;;;19.30;69.40;;;;;;5030179;28;1288;-70
2022/11/16 13:00:38;;;;;;;;;;;19.30;69.40;;;;;;5038728;28;816;-70
2022/11/16 13:03:09;;;;;;;;;;;19.30;69.40;;;;;;5038891;28;835;-71
2022/11/16 13:05:35;;;;;;;;;;;19.30;69.40;;;;;;5036302;28;1890;-70
2022/11/16 13:08:02;;;;;;;;;;;19.30;69.40;;;;;;5038349;28;1300;-71
2022/11/16 13:10:33;;;;;;;;;;;19.20;69.40;;;;;;5029005;28;874;-71
2022/11/16 13:12:59;;;;;;;;;;;19.30;69.40;;;;;;5036494;28;883;-71
2022/11/16 13:15:30;;;;;;;;;;;19.20;69.40;;;;;;5038677;28;1169;-70
2022/11/16 13:17:56;;;;;;;;;;;19.20;69.40;;;;;;5020001;28;1347;-69
2022/11/16 13:20:25;;;;;;;;;;;19.20;69.40;;;;;;5037656;28;903;-70
2022/11/16 13:22:55;;;;;;;;;;;19.20;69.40;;;;;;5037686;28;899;-70
2022/11/16 13:25:23;;;;;;;;;;;19.20;69.40;;;;;;5035647;28;1918;-70
2022/11/16 13:27:52;;;;;;;;;;;19.20;69.40;;;;;;5038920;28;1281;-70
2022/11/16 13:30:21;;;;;;;;;;;19.20;69.50;;;;;;5036285;28;848;-70
2022/11/16 13:33:05;;;;;;;;;;;19.20;69.50;;;;;;5028270;28;914;-71
2022/11/16 13:35:31;;;;;;;;;;;19.20;69.50;;;;;;5034562;28;1306;-70
2022/11/16 13:37:56;;;;;;;;;;;19.20;69.50;;;;;;5023468;28;1312;-70
2022/11/16 13:40:23;;;;;;;;;;;19.20;69.60;;;;;;5037485;28;864;-70
2022/11/16 13:43:04;;;;;;;;;;;19.20;69.50;;;;;;5038285;28;985;-69
2022/11/16 13:45:31;;;;;;;;;;;19.20;69.50;;;;;;5019909;28;4782;-69
2022/11/16 13:47:57;;;;;;;;;;;19.20;69.50;;;;;;5015073;28;4122;-71
2022/11/16 13:50:23;;;;;;;;;;;19.20;69.50;;;;;;5017212;28;4045;-71
2022/11/16 13:52:50;;;;;;;;;;;19.20;69.60;;;;;;5034799;28;4512;-72
2022/11/16 13:55:29;;;;;;;;;;;19.20;69.60;;;;;;5037497;28;841;-70
2022/11/16 13:57:54;;;;;;;;;;;19.20;70.40;;;;;;5039533;28;1319;-69
2022/11/16 14:00:21;;;;;;;;;;;19.20;70.30;;;;;;5036567;28;826;-70
2022/11/16 14:02:46;;;;;;;;;;;19.20;69.60;;;;;;5033974;28;874;-71
2022/11/16 14:05:12;;;;;;;;;;;19.20;69.60;;;;;;5039137;28;1977;-71
2022/11/16 14:07:41;;;;;;;;;;;19.20;69.60;;;;;;5038033;28;1205;-71
2022/11/16 14:10:07;;;;;;;;;;;19.20;69.60;;;;;;5037794;28;899;-70
2022/11/16 14:12:51;;;;;;;;;;;19.20;69.60;;;;;;5040480;28;915;-71
2022/11/16 14:15:18;;;;;;;;;;;19.20;69.60;;;;;;5041156;28;1548;-70
2022/11/16 14:17:53;;;;;;;;;;;19.20;69.60;;;;;;5040866;28;1344;-70
2022/11/16 14:20:23;;;;;;;;;;;19.20;69.60;;;;;;5040385;28;792;-70
2022/11/16 14:23:00;;;;;;;;;;;19.20;69.60;;;;;;5042546;28;1546;-71
2022/11/16 14:25:25;;;;;;;;;;;19.20;69.70;;;;;;5038968;28;1922;-71
2022/11/16 14:28:00;;;;;;;;;;;19.20;69.70;;;;;;5040527;28;1296;-71
2022/11/16 14:30:34;;;;;;;;;;;19.20;69.70;;;;;;5041701;28;816;-70
2022/11/16 14:33:00;;;;;;;;;;;19.20;69.70;;;;;;5038308;28;786;-70
2022/11/16 14:35:32;;;;;;;;;;;19.10;69.70;;;;;;5037547;28;2122;-71
2022/11/16 14:37:59;;;;;;;;;;;19.10;69.70;;;;;;5032316;28;4721;-70
2022/11/16 14:40:25;;;;;;;;;;;19.10;69.70;;;;;;5028094;28;1419;-71
2022/11/16 14:42:51;;;;;;;;;;;19.10;69.70;;;;;;5032535;28;4625;-71
2022/11/16 14:45:21;;;;;;;;;;;19.10;69.70;;;;;;5035083;28;4223;-71
2022/11/16 14:47:46;;;;;;;;;;;19.10;69.70;;;;;;5023462;28;1398;-70
2022/11/16 14:50:18;;;;;;;;;;;19.20;69.80;;;;;;5036629;28;1062;-71
2022/11/16 14:52:46;;;;;;;;;;;19.10;69.70;;;;;;5036771;28;1277;-69
2022/11/16 14:55:18;;;;;;;;;;;19.10;69.70;;;;;;5023845;28;828;-71
2022/11/16 14:57:44;;;;;;;;;;;19.10;69.80;;;;;;5033075;28;4711;-70
2022/11/16 15:00:11;;;;;;;;;;;19.10;69.80;;;;;;5030612;28;4166;-70
2022/11/16 15:02:36;;;;;;;;;;;19.10;69.70;;;;;;5014719;28;4244;-70
2022/11/16 15:05:02;;;;;;;;;;;19.10;69.70;;;;;;5011821;28;4827;-69
2022/11/16 15:07:27;;;;;;;;;;;19.20;69.80;;;;;;5024236;28;5123;-69
2022/11/16 15:09:53;;;;;;;;;;;19.10;69.70;;;;;;4999885;28;4388;-69
2022/11/16 15:12:41;;;;;;;;;;;19.10;69.80;;;;;;5008296;28;4799;-69
2022/11/16 15:15:07;;;;;;;;;;;19.10;69.80;;;;;;5038263;28;1457;-69
2022/11/16 15:17:32;;;;;;;;;;;19.10;69.80;;;;;;5039195;28;1281;-69
2022/11/16 15:19:59;;;;;;;;;;;19.10;69.80;;;;;;5022964;28;918;-69
2022/11/16 15:22:26;;;;;;;;;;;19.10;69.80;;;;;;5037803;28;840;-69
2022/11/16 15:24:58;;;;;;;;;;;19.10;69.80;;;;;;5040869;28;1993;-69